Time;durP1;ratioP1;P1;durP2;ratioP2;P2;SDS_P1;SDS_P2;PMS_P1;PMS_P2;Temp;Humidity;BMP_temperature;BMP_pressure;BME280_temperature;BME280_humidity;BME280_pressure;Samples;Min_cycle;Max_cycle;Signal;HPM_P1;HPM_P2
2022/07/07 00:00:17;;;;;;;2.35;0.60;;;17.80;99.90;;;;;;4966976;28;20106;-84
2022/07/07 00:02:44;;;;;;;4.30;1.00;;;17.80;99.90;;;;;;4964571;28;20062;-84
2022/07/07 00:05:11;;;;;;;6.95;0.88;;;17.80;99.90;;;;;;4966089;28;20133;-84
2022/07/07 00:07:37;;;;;;;3.05;0.82;;;17.80;99.90;;;;;;4965667;28;20051;-84
2022/07/07 00:10:05;;;;;;;1.58;0.75;;;17.80;99.90;;;;;;4968710;28;20113;-84
2022/07/07 00:12:32;;;;;;;1.38;0.75;;;17.70;99.90;;;;;;4972099;28;20046;-84
2022/07/07 00:14:58;;;;;;;1.65;0.70;;;17.80;99.90;;;;;;4965607;28;20181;-83
2022/07/07 00:17:26;;;;;;;2.13;0.80;;;17.80;99.90;;;;;;4966959;28;20055;-84
2022/07/07 00:19:53;;;;;;;2.53;0.80;;;17.70;99.90;;;;;;4965038;28;20540;-84
2022/07/07 00:22:19;;;;;;;2.83;0.82;;;17.80;99.90;;;;;;4948193;28;20161;-84
2022/07/07 00:24:46;;;;;;;4.60;1.10;;;17.70;99.90;;;;;;4967827;28;20047;-84
2022/07/07 00:27:13;;;;;;;1.95;0.70;;;17.80;99.90;;;;;;4971228;28;20470;-83
2022/07/07 00:29:43;;;;;;;5.35;1.00;;;17.80;99.90;;;;;;4949601;28;20090;-85
2022/07/07 00:32:10;;;;;;;;;;;17.70;99.90;;;;;;4965891;28;20461;-84
2022/07/07 00:34:37;;;;;;;2.85;0.80;;;17.80;99.90;;;;;;4947602;28;19960;-84
2022/07/07 00:37:04;;;;;;;3.10;1.05;;;17.70;99.90;;;;;;4967126;28;20047;-84
2022/07/07 00:39:30;;;;;;;3.67;0.98;;;17.70;99.90;;;;;;4955320;29;20140;-84
2022/07/07 00:41:57;;;;;;;2.25;0.60;;;17.80;99.90;;;;;;4955813;28;20051;-85
2022/07/07 00:44:24;;;;;;;1.23;0.70;;;17.70;99.90;;;;;;4938679;29;20055;-84
2022/07/07 00:46:54;;;;;;;3.45;0.70;;;17.70;99.90;;;;;;4958507;28;20051;-83
2022/07/07 00:49:21;;;;;;;;;;;17.70;99.90;;;;;;4947177;28;20580;-84
2022/07/07 00:51:48;;;;;;;4.15;0.90;;;17.60;99.90;;;;;;4970837;28;19921;-83
2022/07/07 00:54:15;;;;;;;2.45;0.80;;;17.60;99.90;;;;;;4972872;28;20075;-84
2022/07/07 00:56:42;;;;;;;3.10;1.15;;;17.60;99.90;;;;;;4971758;28;20051;-84
2022/07/07 00:59:09;;;;;;;3.00;0.88;;;17.60;99.90;;;;;;4974194;28;20051;-84
2022/07/07 01:01:41;;;;;;;1.83;0.70;;;17.60;99.90;;;;;;4958354;28;20051;-84
2022/07/07 01:04:11;;;;;;;1.38;0.80;;;17.60;99.90;;;;;;4972765;28;20059;-84
2022/07/07 01:06:39;;;;;;;4.07;1.13;;;17.50;99.90;;;;;;4955335;28;20090;-83
2022/07/07 01:09:06;;;;;;;2.85;0.70;;;17.50;99.90;;;;;;4974624;28;20051;-84
2022/07/07 01:11:52;;;;;;;2.47;0.88;;;17.50;99.90;;;;;;4971805;28;20047;-84
2022/07/07 01:14:20;;;;;;;2.70;0.80;;;17.40;99.90;;;;;;4965044;28;20055;-84
2022/07/07 01:16:48;;;;;;;5.70;1.17;;;17.40;99.90;;;;;;4964067;28;20047;-83
2022/07/07 01:19:16;;;;;;;1.48;0.90;;;17.40;99.90;;;;;;4963578;28;20050;-84
2022/07/07 01:22:00;;;;;;;1.75;0.98;;;17.40;99.90;;;;;;4965264;28;20058;-84
2022/07/07 01:24:28;;;;;;;4.50;1.23;;;17.30;99.90;;;;;;4964844;28;20090;-84
2022/07/07 01:27:14;;;;;;;1.73;0.80;;;17.30;99.90;;;;;;4972457;28;20051;-85
2022/07/07 01:29:44;;;;;;;1.67;0.82;;;17.30;99.90;;;;;;4976293;28;20445;-85
2022/07/07 01:32:12;;;;;;;2.15;0.90;;;17.30;99.90;;;;;;4958690;28;20044;-85
2022/07/07 01:34:41;;;;;;;6.30;1.00;;;17.30;99.90;;;;;;4979386;28;20058;-84
2022/07/07 01:37:08;;;;;;;1.73;0.90;;;17.30;99.90;;;;;;4975564;28;20050;-84
2022/07/07 01:39:36;;;;;;;2.28;0.82;;;17.20;99.90;;;;;;4976853;28;20055;-84
2022/07/07 01:42:03;;;;;;;1.63;0.73;;;17.20;99.90;;;;;;4958259;28;20055;-84
2022/07/07 01:44:35;;;;;;;3.40;1.23;;;17.20;99.90;;;;;;4966330;28;20057;-84
2022/07/07 01:47:03;;;;;;;4.35;0.70;;;17.20;99.90;;;;;;4967343;28;20079;-84
2022/07/07 01:49:31;;;;;;;1.05;0.90;;;17.20;99.90;;;;;;4966780;29;20079;-84
2022/07/07 01:51:58;;;;;;;2.15;0.90;;;17.20;99.90;;;;;;4950784;28;20051;-84
2022/07/07 01:54:26;;;;;;;4.35;0.90;;;17.10;99.90;;;;;;4961721;28;20078;-84
2022/07/07 01:56:53;;;;;;;4.43;0.82;;;17.00;99.90;;;;;;4977067;28;20143;-85
2022/07/07 01:59:20;;;;;;;1.98;0.70;;;17.10;99.90;;;;;;4959326;28;20046;-85
2022/07/07 02:01:47;;;;;;;2.15;0.77;;;17.00;99.90;;;;;;4977450;28;20058;-84
2022/07/07 02:04:15;;;;;;;2.75;0.70;;;16.90;99.90;;;;;;4962411;28;20138;-85
2022/07/07 02:06:42;;;;;;;1.50;0.73;;;16.90;99.90;;;;;;4964865;28;20125;-84
2022/07/07 02:09:09;;;;;;;4.15;0.93;;;16.90;99.90;;;;;;4962580;28;20059;-84
2022/07/07 02:11:36;;;;;;;2.58;0.88;;;16.90;99.90;;;;;;4946181;28;20158;-84
2022/07/07 02:14:04;;;;;;;1.90;0.60;;;16.80;99.90;;;;;;4965065;28;20121;-85
2022/07/07 02:16:33;;;;;;;4.25;0.98;;;16.80;99.90;;;;;;4948186;28;20563;-85
2022/07/07 02:19:03;;;;;;;1.67;0.70;;;16.80;99.90;;;;;;4963302;28;20081;-85
2022/07/07 02:21:30;;;;;;;1.33;0.60;;;16.80;99.90;;;;;;4949048;28;20086;-83
2022/07/07 02:23:58;;;;;;;1.88;0.70;;;16.80;99.90;;;;;;4945746;29;20114;-84
2022/07/07 02:26:25;;;;;;;3.65;0.93;;;16.80;99.90;;;;;;4965240;28;20043;-85
2022/07/07 02:28:52;;;;;;;2.28;1.20;;;16.80;99.90;;;;;;4964296;28;20074;-84
2022/07/07 02:31:20;;;;;;;2.05;0.90;;;16.80;99.90;;;;;;4960752;28;20085;-84
2022/07/07 02:33:47;;;;;;;1.20;0.77;;;16.80;99.90;;;;;;4964011;28;20046;-84
2022/07/07 02:36:14;;;;;;;3.20;1.20;;;16.70;99.90;;;;;;4962297;28;20081;-85
2022/07/07 02:38:40;;;;;;;3.25;0.90;;;16.70;99.90;;;;;;4966150;28;20416;-84
2022/07/07 02:41:08;;;;;;;2.05;0.90;;;16.60;99.90;;;;;;4966624;28;20058;-85
2022/07/07 02:43:35;;;;;;;2.47;1.02;;;16.60;99.90;;;;;;4949611;28;20051;-85
2022/07/07 02:46:03;;;;;;;1.58;0.60;;;16.60;99.90;;;;;;4968128;28;20101;-85
2022/07/07 02:48:31;;;;;;;1.42;0.90;;;16.60;99.90;;;;;;4964425;28;20102;-84
2022/07/07 02:50:58;;;;;;;4.07;0.93;;;16.60;99.90;;;;;;4968552;28;20456;-84
2022/07/07 02:53:25;;;;;;;1.83;0.80;;;16.60;99.90;;;;;;4963916;28;20047;-84
2022/07/07 02:55:52;;;;;;;2.15;0.93;;;16.60;99.90;;;;;;4966453;28;20086;-85
2022/07/07 02:58:23;;;;;;;3.65;1.10;;;16.60;99.90;;;;;;4965550;28;20142;-85
2022/07/07 03:00:54;;;;;;;3.40;1.00;;;16.50;99.90;;;;;;4964721;28;20043;-84
2022/07/07 03:03:21;;;;;;;2.22;1.02;;;16.60;99.90;;;;;;4966734;28;20054;-84
2022/07/07 03:05:49;;;;;;;1.50;1.00;;;16.50;99.90;;;;;;4968500;28;20050;-84
2022/07/07 03:08:16;;;;;;;2.10;1.00;;;16.50;99.90;;;;;;4947988;28;20176;-83
2022/07/07 03:10:43;;;;;;;2.67;0.90;;;16.40;99.90;;;;;;4967891;28;20051;-84
2022/07/07 03:13:10;;;;;;;4.10;1.23;;;16.50;99.90;;;;;;4965518;28;20074;-84
2022/07/07 03:15:36;;;;;;;7.90;1.15;;;16.40;99.90;;;;;;4965587;28;20054;-84
2022/07/07 03:18:03;;;;;;;2.63;1.00;;;16.40;99.90;;;;;;4951344;28;20049;-84
2022/07/07 03:20:30;;;;;;;6.90;1.23;;;16.40;99.90;;;;;;4947984;28;20126;-84
2022/07/07 03:22:57;;;;;;;3.25;0.75;;;16.40;99.90;;;;;;4967029;28;20423;-84
2022/07/07 03:25:24;;;;;;;2.45;1.10;;;16.40;99.90;;;;;;4965999;28;20105;-84
2022/07/07 03:27:50;;;;;;;3.55;1.13;;;16.40;99.90;;;;;;4966030;28;20093;-84
2022/07/07 03:30:17;;;;;;;2.30;0.90;;;16.40;99.90;;;;;;4962831;28;20075;-84
2022/07/07 03:32:44;;;;;;;3.33;1.00;;;16.30;99.90;;;;;;4968038;28;20138;-84
2022/07/07 03:35:11;;;;;;;3.05;1.00;;;16.30;99.90;;;;;;4964594;28;20047;-84
2022/07/07 03:37:37;;;;;;;2.30;0.98;;;16.30;99.90;;;;;;4966522;28;20058;-84
2022/07/07 03:40:06;;;;;;;3.15;1.00;;;16.30;99.90;;;;;;4965791;28;20051;-84
2022/07/07 03:42:35;;;;;;;2.60;0.93;;;16.20;99.90;;;;;;4964818;28;20082;-84
2022/07/07 03:45:02;;;;;;;5.80;1.02;;;16.20;99.90;;;;;;4968144;28;20082;-85
2022/07/07 03:47:29;;;;;;;2.17;1.02;;;16.20;99.90;;;;;;4966208;28;20281;-84
2022/07/07 03:49:55;;;;;;;2.08;1.00;;;16.10;99.90;;;;;;4967669;28;20089;-84
2022/07/07 03:52:22;;;;;;;1.90;1.20;;;16.00;99.90;;;;;;4966237;28;20085;-84
2022/07/07 03:54:49;;;;;;;1.35;1.00;;;15.90;99.90;;;;;;4963614;28;20095;-84
2022/07/07 03:57:16;;;;;;;26.52;5.00;;;16.00;99.90;;;;;;4966215;28;20552;-84
2022/07/07 03:59:42;;;;;;;4.18;1.60;;;16.00;99.90;;;;;;4964116;28;20078;-84
2022/07/07 04:02:09;;;;;;;1.45;1.10;;;16.10;99.90;;;;;;4968946;28;20054;-85
2022/07/07 04:04:36;;;;;;;3.50;1.20;;;16.10;99.90;;;;;;4948878;28;20055;-84
2022/07/07 04:07:04;;;;;;;1.95;1.00;;;16.10;99.90;;;;;;4967026;28;20113;-84
2022/07/07 04:09:30;;;;;;;1.70;0.95;;;16.00;99.90;;;;;;4946860;28;20055;-84
2022/07/07 04:11:57;;;;;;;3.58;1.20;;;16.00;99.90;;;;;;4950799;28;20087;-84
2022/07/07 04:14:24;;;;;;;2.40;1.17;;;16.00;99.90;;;;;;4953494;28;20086;-84
2022/07/07 04:16:51;;;;;;;2.95;1.10;;;16.00;99.90;;;;;;4965324;28;20051;-83
2022/07/07 04:19:17;;;;;;;4.78;1.42;;;15.90;99.90;;;;;;4947624;28;20047;-84
2022/07/07 04:21:44;;;;;;;4.18;1.75;;;15.90;99.90;;;;;;4967013;28;20079;-85
2022/07/07 04:24:11;;;;;;;0.93;0.63;;;16.00;99.90;;;;;;4965906;28;20051;-84
2022/07/07 04:26:38;;;;;;;3.85;1.20;;;16.00;99.90;;;;;;4968486;28;20105;-84
2022/07/07 04:29:05;;;;;;;1.83;0.70;;;16.00;99.90;;;;;;4964711;28;20047;-85
2022/07/07 04:31:32;;;;;;;1.95;0.85;;;16.00;99.90;;;;;;4963878;28;20142;-85
2022/07/07 04:33:59;;;;;;;2.45;1.30;;;16.00;99.90;;;;;;4966727;28;20047;-84
2022/07/07 04:36:25;;;;;;;3.90;1.50;;;16.00;99.90;;;;;;4963088;28;20494;-85
2022/07/07 04:38:52;;;;;;;3.08;1.13;;;16.00;99.90;;;;;;4967156;28;20047;-84
2022/07/07 04:41:19;;;;;;;1.73;1.08;;;16.00;99.90;;;;;;4964799;28;20075;-85
2022/07/07 04:43:46;;;;;;;3.38;1.10;;;16.00;99.90;;;;;;4964967;28;20054;-85
2022/07/07 04:46:12;;;;;;;1.60;1.10;;;16.00;99.90;;;;;;4962923;28;20062;-85
2022/07/07 04:48:39;;;;;;;3.67;0.90;;;16.10;99.90;;;;;;4967066;28;20055;-86
2022/07/07 04:51:06;;;;;;;6.82;1.10;;;16.00;99.90;;;;;;4965582;28;20099;-85
2022/07/07 04:53:33;;;;;;;2.67;1.00;;;16.10;99.90;;;;;;4964865;28;20086;-86
2022/07/07 04:56:00;;;;;;;3.40;1.00;;;16.20;99.90;;;;;;4966150;28;20054;-86
2022/07/07 04:58:26;;;;;;;4.80;1.08;;;16.30;99.90;;;;;;4963290;28;20075;-85
2022/07/07 05:00:53;;;;;;;2.58;0.90;;;16.40;99.90;;;;;;4949395;28;20476;-85
2022/07/07 05:03:26;;;;;;;5.63;1.15;;;16.60;99.90;;;;;;4964209;28;20055;-85
2022/07/07 05:05:54;;;;;;;2.45;1.00;;;16.70;99.90;;;;;;4963518;28;20062;-85
2022/07/07 05:08:21;;;;;;;3.70;1.00;;;16.80;99.90;;;;;;4964387;28;20051;-84
2022/07/07 05:10:48;;;;;;;3.67;1.02;;;16.90;99.90;;;;;;4962665;28;20502;-85
2022/07/07 05:13:15;;;;;;;2.22;0.95;;;17.10;99.90;;;;;;4963513;28;20078;-85
2022/07/07 05:15:41;;;;;;;1.60;0.98;;;17.20;99.90;;;;;;4966147;28;20429;-86
2022/07/07 05:18:09;;;;;;;1.33;1.00;;;17.40;99.90;;;;;;4964008;28;20082;-83
2022/07/07 05:20:36;;;;;;;1.83;0.80;;;17.50;99.90;;;;;;4965640;28;20047;-85
2022/07/07 05:23:03;;;;;;;2.97;0.90;;;17.70;99.90;;;;;;4963701;28;20047;-86
2022/07/07 05:25:29;;;;;;;2.70;0.93;;;17.80;99.90;;;;;;4966037;28;20130;-86
2022/07/07 05:27:56;;;;;;;4.88;1.50;;;18.00;99.90;;;;;;4965206;28;20054;-85
2022/07/07 05:30:23;;;;;;;3.00;1.00;;;18.10;99.90;;;;;;4966100;28;20051;-85
2022/07/07 05:32:50;;;;;;;6.68;1.00;;;18.10;99.90;;;;;;4971100;28;20343;-85
2022/07/07 05:35:16;;;;;;;2.97;0.70;;;18.20;99.90;;;;;;4965378;28;20051;-85
2022/07/07 05:37:43;;;;;;;3.05;1.10;;;18.30;99.90;;;;;;4968196;28;20048;-85
2022/07/07 05:40:11;;;;;;;3.30;1.20;;;18.40;99.90;;;;;;4952578;28;20046;-86
2022/07/07 05:42:37;;;;;;;2.55;0.90;;;18.40;99.90;;;;;;4964694;28;20047;-85
2022/07/07 05:45:05;;;;;;;1.50;0.90;;;18.40;99.90;;;;;;4968524;28;20086;-85
2022/07/07 05:47:32;;;;;;;1.90;0.93;;;18.50;99.90;;;;;;4964052;28;20055;-85
2022/07/07 05:49:59;;;;;;;4.20;0.88;;;18.50;99.90;;;;;;4963115;28;20062;-85
2022/07/07 05:52:26;;;;;;;3.47;1.10;;;18.50;99.90;;;;;;4960702;28;20047;-85
2022/07/07 05:54:53;;;;;;;2.55;0.90;;;18.50;99.90;;;;;;4960572;28;20067;-85
2022/07/07 05:57:19;;;;;;;2.90;0.70;;;18.50;99.90;;;;;;4965098;28;20093;-86
2022/07/07 05:59:46;;;;;;;3.90;0.95;;;18.50;99.90;;;;;;4962209;28;20469;-85
2022/07/07 06:02:13;;;;;;;2.70;0.80;;;18.50;99.90;;;;;;4964377;28;20070;-84
2022/07/07 06:04:40;;;;;;;2.88;1.17;;;18.50;99.90;;;;;;4963885;28;20055;-85
2022/07/07 06:07:06;;;;;;;1.85;0.98;;;18.50;99.90;;;;;;4962980;28;20074;-85
2022/07/07 06:09:34;;;;;;;3.08;1.17;;;18.60;99.90;;;;;;4960515;28;20051;-85
2022/07/07 06:12:00;;;;;;;3.97;0.95;;;18.60;99.90;;;;;;4965361;28;20519;-85
2022/07/07 06:14:28;;;;;;;2.95;1.40;;;18.60;99.90;;;;;;4967410;28;20468;-85
2022/07/07 06:16:55;;;;;;;6.57;1.40;;;18.60;99.90;;;;;;4967307;28;20047;-86
2022/07/07 06:19:22;;;;;;;3.70;1.02;;;18.60;99.90;;;;;;4966838;28;20101;-85
2022/07/07 06:21:49;;;;;;;3.70;0.88;;;18.60;99.90;;;;;;4971810;28;20500;-84
2022/07/07 06:24:16;;;;;;;5.68;1.35;;;18.60;99.90;;;;;;4967634;28;20179;-84
2022/07/07 06:26:42;;;;;;;3.85;1.02;;;18.70;99.90;;;;;;4970038;28;20461;-85
2022/07/07 06:29:09;;;;;;;2.35;1.00;;;18.70;99.90;;;;;;4969214;28;20083;-85
2022/07/07 06:31:36;;;;;;;1.70;0.90;;;18.70;99.90;;;;;;4979709;28;20047;-85
2022/07/07 06:34:03;;;;;;;5.88;0.80;;;18.70;99.90;;;;;;4982140;28;20043;-85
2022/07/07 06:36:30;;;;;;;5.55;1.10;;;18.70;99.90;;;;;;4978704;28;20055;-85
2022/07/07 06:38:57;;;;;;;4.03;0.93;;;18.70;99.90;;;;;;4965922;28;20058;-85
2022/07/07 06:41:36;;;;;;;3.53;1.10;;;18.70;99.90;;;;;;4980147;28;20075;-86
2022/07/07 06:44:06;;;;;;;2.08;0.85;;;18.80;99.90;;;;;;4979853;28;20062;-84
2022/07/07 06:46:33;;;;;;;5.78;1.23;;;18.80;99.90;;;;;;4965485;28;20051;-85
2022/07/07 06:49:00;;;;;;;3.78;0.90;;;18.80;99.90;;;;;;4978945;28;20061;-85
2022/07/07 06:51:27;;;;;;;5.75;1.17;;;18.90;99.90;;;;;;4978750;28;20429;-85
2022/07/07 06:53:54;;;;;;;4.18;0.80;;;18.90;99.90;;;;;;4977689;28;20047;-85
2022/07/07 06:56:21;;;;;;;4.70;0.98;;;18.90;99.90;;;;;;4981696;28;20047;-86
2022/07/07 06:58:48;;;;;;;4.07;0.98;;;18.90;99.90;;;;;;4979990;28;20110;-85
2022/07/07 07:01:15;;;;;;;13.80;1.00;;;19.00;99.90;;;;;;4980512;28;20059;-84
2022/07/07 07:03:41;;;;;;;1.83;1.15;;;19.00;99.90;;;;;;4983154;28;20094;-85
2022/07/07 07:06:09;;;;;;;4.18;0.82;;;19.00;99.90;;;;;;4955337;28;20079;-84
2022/07/07 07:08:36;;;;;;;1.83;1.10;;;19.00;99.90;;;;;;4987912;28;20564;-85
2022/07/07 07:11:04;;;;;;;5.88;1.10;;;19.10;99.90;;;;;;4982347;28;20097;-85
2022/07/07 07:13:31;;;;;;;4.60;1.48;;;19.10;99.90;;;;;;4974038;28;20078;-85
2022/07/07 07:15:58;;;;;;;5.72;1.13;;;19.10;99.90;;;;;;4968655;28;20074;-85
2022/07/07 07:18:25;;;;;;;4.22;1.05;;;19.20;99.90;;;;;;4968367;28;20101;-86
2022/07/07 07:20:52;;;;;;;6.43;1.10;;;19.20;99.90;;;;;;4969725;28;20051;-85
2022/07/07 07:23:19;;;;;;;5.40;1.20;;;19.20;99.90;;;;;;4966640;28;20121;-86
2022/07/07 07:25:46;;;;;;;4.20;1.15;;;19.20;99.90;;;;;;4968832;28;20102;-84
2022/07/07 07:28:13;;;;;;;7.88;1.30;;;19.30;99.90;;;;;;4967923;28;20437;-84
2022/07/07 07:30:39;;;;;;;4.63;0.82;;;19.30;99.90;;;;;;4964068;28;20625;-84
2022/07/07 07:33:06;;;;;;;2.72;1.17;;;19.40;99.90;;;;;;4949500;28;20047;-85
2022/07/07 07:35:33;;;;;;;4.63;1.48;;;19.40;99.90;;;;;;4976403;28;20074;-85
2022/07/07 07:38:00;;;;;;;3.00;1.00;;;19.50;99.90;;;;;;4974013;28;20051;-84
2022/07/07 07:40:26;;;;;;;1.50;0.73;;;19.60;99.90;;;;;;4968279;28;20505;-85
2022/07/07 07:42:53;;;;;;;3.47;1.23;;;19.80;99.90;;;;;;4966369;28;20134;-85
2022/07/07 07:45:21;;;;;;;6.57;1.30;;;20.00;99.90;;;;;;4953420;28;20058;-84
2022/07/07 07:47:48;;;;;;;2.85;1.30;;;20.20;99.90;;;;;;4968691;28;20071;-84
2022/07/07 07:50:18;;;;;;;1.88;0.80;;;20.40;99.90;;;;;;4970385;28;20046;-84
2022/07/07 07:52:45;;;;;;;1.65;0.80;;;20.70;99.90;;;;;;4978991;28;20461;-82
2022/07/07 07:55:14;;;;;;;5.35;0.90;;;20.90;99.90;;;;;;4977856;28;20054;-84
2022/07/07 07:57:42;;;;;;;4.97;1.38;;;21.10;99.90;;;;;;4969968;28;20086;-84
2022/07/07 08:00:11;;;;;;;4.35;1.30;;;21.20;99.90;;;;;;4972137;28;20461;-83
2022/07/07 08:02:38;;;;;;;5.35;1.75;;;21.40;99.90;;;;;;4974567;28;20117;-84
2022/07/07 08:05:06;;;;;;;3.75;0.82;;;21.50;99.90;;;;;;4967890;28;20056;-84
2022/07/07 08:07:33;;;;;;;1.38;0.95;;;21.50;99.90;;;;;;4949507;28;20091;-84
2022/07/07 08:10:00;;;;;;;2.40;1.00;;;21.50;99.90;;;;;;4965300;28;20531;-84
2022/07/07 08:12:27;;;;;;;2.33;0.82;;;21.50;99.90;;;;;;4966662;28;20054;-84
2022/07/07 08:14:54;;;;;;;6.03;1.20;;;21.60;99.90;;;;;;4967605;28;20047;-84
2022/07/07 08:17:21;;;;;;;7.32;0.98;;;21.50;99.90;;;;;;4965641;28;20493;-84
2022/07/07 08:19:49;;;;;;;4.78;1.10;;;21.60;99.90;;;;;;4965822;28;20062;-84
2022/07/07 08:22:15;;;;;;;3.40;1.02;;;21.60;99.90;;;;;;4966847;28;20421;-83
2022/07/07 08:24:42;;;;;;;4.10;1.08;;;21.50;99.90;;;;;;4963808;28;20051;-84
2022/07/07 08:27:10;;;;;;;3.67;1.00;;;21.50;99.90;;;;;;4964826;28;20043;-84
2022/07/07 08:29:38;;;;;;;6.03;1.13;;;21.50;99.90;;;;;;4954469;28;20104;-84
2022/07/07 08:32:13;;;;;;;3.13;0.98;;;21.40;99.90;;;;;;4971537;28;20047;-82
2022/07/07 08:34:41;;;;;;;3.90;0.80;;;21.40;99.90;;;;;;4970271;28;20047;-84
2022/07/07 08:37:09;;;;;;;4.55;1.23;;;21.40;99.90;;;;;;4969427;28;20122;-83
2022/07/07 08:39:37;;;;;;;3.60;1.42;;;21.40;99.90;;;;;;4970278;28;20472;-83
2022/07/07 08:42:05;;;;;;;3.13;0.90;;;21.50;99.90;;;;;;4967494;28;20051;-84
2022/07/07 08:44:32;;;;;;;4.75;1.15;;;21.50;99.90;;;;;;4966000;28;20561;-83
2022/07/07 08:46:59;;;;;;;4.47;1.20;;;21.60;99.90;;;;;;4966074;28;20493;-83
2022/07/07 08:49:29;;;;;;;5.07;0.95;;;21.70;99.90;;;;;;4972988;28;20046;-83
2022/07/07 08:51:57;;;;;;;4.47;1.45;;;21.80;99.90;;;;;;4966269;28;20082;-83
2022/07/07 08:54:26;;;;;;;3.30;1.00;;;21.90;99.90;;;;;;4965470;28;20054;-83
2022/07/07 08:56:54;;;;;;;3.47;1.20;;;22.00;99.90;;;;;;4979211;28;20050;-83
2022/07/07 08:59:20;;;;;;;1.23;0.70;;;22.20;99.90;;;;;;4971194;28;20075;-84
2022/07/07 09:01:58;;;;;;;4.15;1.02;;;22.20;99.90;;;;;;4974155;28;20050;-84
2022/07/07 09:04:25;;;;;;;6.35;1.17;;;22.40;99.90;;;;;;4967852;28;20314;-84
2022/07/07 09:07:03;;;;;;;4.93;0.98;;;22.50;99.90;;;;;;4969252;28;20050;-84
2022/07/07 09:09:36;;;;;;;3.70;0.90;;;22.50;99.90;;;;;;4953767;28;20134;-85
2022/07/07 09:12:04;;;;;;;2.50;0.95;;;22.60;99.90;;;;;;4968103;28;20137;-84
2022/07/07 09:14:42;;;;;;;5.05;1.05;;;22.70;99.90;;;;;;4971459;28;20039;-84
2022/07/07 09:17:27;;;;;;;3.50;1.13;;;22.80;99.90;;;;;;4972334;28;20083;-82
2022/07/07 09:20:08;;;;;;;2.63;1.08;;;22.90;99.90;;;;;;4963277;28;20070;-84
2022/07/07 09:22:53;;;;;;;4.40;0.95;;;22.90;99.90;;;;;;4960200;28;20048;-82
2022/07/07 09:25:28;;;;;;;5.35;0.88;;;22.90;99.90;;;;;;4953482;28;20394;-82
2022/07/07 09:28:05;;;;;;;10.52;1.10;;;23.00;99.90;;;;;;4975201;28;20105;-80
2022/07/07 09:30:37;;;;;;;5.93;1.00;;;23.00;99.90;;;;;;4975703;28;20077;-82
2022/07/07 09:33:06;;;;;;;4.88;0.90;;;23.00;99.90;;;;;;4977334;28;20055;-82
2022/07/07 09:38:31;;;;;;;2.67;0.95;;;22.90;99.90;;;;;;4948262;28;20579;-82
2022/07/07 09:41:18;;;;;;;2.47;0.95;;;22.90;99.90;;;;;;4974847;28;20055;-82
2022/07/07 09:43:53;;;;;;;4.10;1.23;;;23.00;99.90;;;;;;4973579;28;20453;-82
2022/07/07 09:46:21;;;;;;;5.45;1.15;;;23.20;99.90;;;;;;4969914;28;20051;-82
2022/07/07 09:48:57;;;;;;;4.40;1.10;;;23.30;99.90;;;;;;4978081;28;20043;-82
2022/07/07 09:51:30;;;;;;;7.68;1.38;;;23.50;99.90;;;;;;4973946;28;20094;-81
2022/07/07 09:54:14;;;;;;;8.32;2.20;;;23.60;99.90;;;;;;4978207;28;20046;-82
2022/07/07 09:56:46;;;;;;;3.75;1.20;;;23.70;99.90;;;;;;4967654;28;20042;-80
2022/07/07 09:59:18;;;;;;;2.40;0.90;;;23.80;99.90;;;;;;4978732;28;20075;-83
2022/07/07 10:01:46;;;;;;;6.00;1.63;;;23.60;99.90;;;;;;4973875;28;20090;-83
2022/07/07 10:04:19;;;;;;;4.22;1.25;;;23.70;99.90;;;;;;4977192;28;20449;-81
2022/07/07 10:06:46;;;;;;;1.35;0.85;;;23.60;99.90;;;;;;4973856;28;20050;-81
2022/07/07 10:09:18;;;;;;;5.20;1.10;;;23.70;99.90;;;;;;4981705;28;20074;-82
2022/07/07 10:11:51;;;;;;;2.75;1.15;;;23.90;99.90;;;;;;4958824;28;20059;-81
2022/07/07 10:14:33;;;;;;;2.63;0.90;;;24.00;99.90;;;;;;4977476;28;20406;-82
2022/07/07 10:17:01;;;;;;;3.50;0.98;;;24.20;99.90;;;;;;4961675;28;20046;-81
2022/07/07 10:19:28;;;;;;;2.42;0.98;;;24.30;99.90;;;;;;4976603;28;20038;-82
2022/07/07 10:21:56;;;;;;;2.38;1.02;;;24.40;99.90;;;;;;4978975;28;20101;-83
2022/07/07 10:24:27;;;;;;;4.50;1.35;;;24.40;99.90;;;;;;4974622;28;20054;-82
2022/07/07 10:26:59;;;;;;;1.50;0.90;;;24.40;99.90;;;;;;4981365;28;20046;-82
2022/07/07 10:29:41;;;;;;;2.75;1.00;;;24.30;99.90;;;;;;4973694;28;20078;-81
2022/07/07 10:32:12;;;;;;;2.47;0.90;;;24.30;99.90;;;;;;4973543;28;20051;-81
2022/07/07 10:34:53;;;;;;;2.80;1.00;;;24.20;99.90;;;;;;4966774;28;20071;-83
2022/07/07 10:37:21;;;;;;;4.10;0.98;;;24.20;99.90;;;;;;4965505;28;20197;-81
2022/07/07 10:39:51;;;;;;;1.80;0.80;;;24.10;99.90;;;;;;4980712;28;20043;-82
2022/07/07 10:42:18;;;;;;;2.28;1.17;;;24.00;99.90;;;;;;4979367;28;20075;-82
2022/07/07 10:44:48;;;;;;;2.75;0.98;;;24.00;99.90;;;;;;4984312;28;20456;-82
2022/07/07 10:47:17;;;;;;;4.22;0.90;;;24.10;99.90;;;;;;4977267;28;20513;-80
2022/07/07 10:49:51;;;;;;;4.63;0.73;;;24.10;99.90;;;;;;4980551;28;20051;-83
2022/07/07 10:52:20;;;;;;;5.35;0.90;;;24.20;99.90;;;;;;4977271;28;20938;-83
2022/07/07 10:54:53;;;;;;;3.30;1.02;;;24.30;99.90;;;;;;5045437;23;20100;-79
2022/07/07 10:57:22;;;;;;;2.70;0.90;;;24.50;99.90;;;;;;5033905;28;20072;-79
2022/07/07 10:59:59;;;;;;;4.82;1.23;;;24.50;99.90;;;;;;5038935;28;20050;-81
2022/07/07 11:02:33;;;;;;;2.17;0.77;;;24.50;99.90;;;;;;5033098;28;20088;-80
2022/07/07 11:05:03;;;;;;;5.00;1.20;;;24.60;99.90;;;;;;5042999;28;20049;-79
2022/07/07 11:07:30;;;;;;;2.72;1.00;;;24.80;99.90;;;;;;5015374;28;20074;-80
2022/07/07 11:10:03;;;;;;;2.45;0.95;;;24.90;99.90;;;;;;5008065;28;20077;-79
2022/07/07 11:12:46;;;;;;;3.75;1.10;;;25.00;99.90;;;;;;5011043;28;20454;-79
2022/07/07 11:15:21;;;;;;;5.63;1.17;;;25.20;99.90;;;;;;5009300;28;20111;-79
2022/07/07 11:18:07;;;;;;;2.72;1.25;;;25.30;99.90;;;;;;5007313;28;20078;-79
2022/07/07 11:20:34;;;;;;;3.08;1.08;;;25.50;99.90;;;;;;5006995;28;20101;-79
2022/07/07 11:23:12;;;;;;;3.22;1.00;;;25.60;99.90;;;;;;5008106;28;20052;-79
2022/07/07 11:25:40;;;;;;;2.78;1.00;;;25.80;99.90;;;;;;5007735;28;20046;-79
2022/07/07 11:28:09;;;;;;;5.25;0.77;;;26.00;99.90;;;;;;5013443;28;20124;-78
2022/07/07 11:30:39;;;;;;;5.50;0.80;;;26.00;99.90;;;;;;5008016;28;20073;-78
2022/07/07 11:33:07;;;;;;;5.72;0.90;;;26.00;99.90;;;;;;5008359;28;20137;-78
2022/07/07 11:35:37;;;;;;;5.35;0.95;;;26.00;99.90;;;;;;5008632;28;20088;-79
2022/07/07 11:38:05;;;;;;;6.90;1.42;;;25.80;99.90;;;;;;5010578;28;20492;-78
2022/07/07 11:40:32;;;;;;;4.35;1.30;;;25.70;99.90;;;;;;5010119;28;20062;-76
2022/07/07 11:43:00;;;;;;;3.10;1.55;;;25.40;99.90;;;;;;5008280;28;20129;-79
2022/07/07 11:45:31;;;;;;;4.18;0.88;;;25.20;99.90;;;;;;5010126;28;20050;-79
2022/07/07 11:48:03;;;;;;;3.75;1.00;;;25.00;99.90;;;;;;5007759;28;20529;-80
2022/07/07 11:50:31;;;;;;;3.05;1.00;;;24.90;99.90;;;;;;5011441;28;20527;-78
2022/07/07 11:52:59;;;;;;;4.63;0.85;;;24.80;99.90;;;;;;5006643;28;20137;-78
2022/07/07 11:55:27;;;;;;;4.75;0.90;;;24.70;99.90;;;;;;5012286;28;20057;-79
2022/07/07 11:57:59;;;;;;;3.90;1.23;;;24.60;99.90;;;;;;5011763;28;20085;-80
2022/07/07 12:00:31;;;;;;;2.17;0.95;;;24.40;99.90;;;;;;5009048;28;20427;-80
2022/07/07 12:03:01;;;;;;;3.28;1.10;;;24.30;99.90;;;;;;5004472;28;20065;-79
2022/07/07 12:05:30;;;;;;;2.40;1.30;;;24.20;99.90;;;;;;5012983;28;20096;-80
2022/07/07 12:07:56;;;;;;;3.17;1.20;;;24.20;99.90;;;;;;5010685;28;20108;-79
2022/07/07 12:10:53;;;;;;;3.30;1.10;;;24.10;99.90;;;;;;5010329;28;20057;-79
2022/07/07 12:13:20;;;;;;;3.08;0.93;;;24.10;99.90;;;;;;5010534;28;20571;-80
2022/07/07 12:15:53;;;;;;;2.13;0.90;;;24.20;99.90;;;;;;5013140;28;20070;-81
2022/07/07 12:18:38;;;;;;;3.63;0.93;;;24.20;99.90;;;;;;5004833;28;20113;-80
2022/07/07 12:21:13;;;;;;;4.88;1.02;;;24.30;99.90;;;;;;5014017;28;20049;-80
2022/07/07 12:23:43;;;;;;;1.98;0.90;;;24.30;99.90;;;;;;5008868;28;20049;-81
2022/07/07 12:26:12;;;;;;;3.70;1.08;;;24.30;99.90;;;;;;5012609;28;20136;-80
2022/07/07 12:28:40;;;;;;;2.90;1.15;;;24.40;99.90;;;;;;5001870;28;20420;-78
2022/07/07 12:31:07;;;;;;;4.80;1.10;;;24.50;99.90;;;;;;5010895;28;20100;-81
2022/07/07 12:33:35;;;;;;;5.18;1.13;;;24.50;99.90;;;;;;5013395;28;20061;-81
2022/07/07 12:36:11;;;;;;;4.22;1.17;;;24.70;99.90;;;;;;5007895;28;20479;-80
2022/07/07 12:38:42;;;;;;;5.43;1.10;;;24.80;99.90;;;;;;5013219;28;20160;-79
2022/07/07 12:41:24;;;;;;;2.22;1.25;;;24.90;99.90;;;;;;5013996;28;20508;-81
2022/07/07 12:43:52;;;;;;;6.75;1.40;;;25.00;99.90;;;;;;5012100;28;20458;-81
2022/07/07 12:46:19;;;;;;;4.90;1.00;;;25.10;99.90;;;;;;5003683;28;20043;-79
2022/07/07 12:48:49;;;;;;;2.67;1.20;;;25.20;99.90;;;;;;5003291;28;20061;-79
2022/07/07 12:51:18;;;;;;;5.70;1.25;;;25.30;99.90;;;;;;5012658;28;20104;-80
2022/07/07 12:53:45;;;;;;;1.92;0.80;;;25.40;99.90;;;;;;5006875;28;20103;-80
2022/07/07 12:56:13;;;;;;;3.28;0.90;;;25.50;99.90;;;;;;5009542;28;20413;-80
2022/07/07 12:58:46;;;;;;;5.70;1.10;;;25.50;99.90;;;;;;5010401;28;20045;-81